Terminal Aerodrome Forecast
Issued by NWS

Home | Current Version | Previous Version | Text Only | Print | Product List | Glossary On
Versions: 1 2 3 4 5 6 7 8 9 10 11 12 13 14 15 16
000
FTUS46 KLOX 252300 RRA
TAFWJF
TAF
KWJF 252340Z 2600/2624 27025G35KT P6SM BKN045
     FM260300 26020G30KT P6SM SCT250
     FM260800 25016G23KT P6SM SCT250
     FM261600 31009KT P6SM SCT250
     FM262000 29013G20KT P6SM SCT250
     FM262200 27020G28KT P6SM SKC=

USA.gov is the U.S. government's official web portal to all federal, state and local government web resources and services.